createdAt,value
2022-10-12T00:02:22.723Z,0
2022-10-12T00:07:40.424Z,0
2022-10-12T00:13:00.673Z,0
2022-10-12T00:18:17.962Z,0
2022-10-12T00:23:52.524Z,0
2022-10-12T00:29:10.285Z,0
2022-10-12T00:34:27.841Z,0
2022-10-12T00:39:45.265Z,0
2022-10-12T00:45:02.592Z,0
2022-10-12T00:50:19.834Z,0
2022-10-12T00:55:37.234Z,0
2022-10-12T01:00:54.759Z,0
2022-10-12T01:06:12.127Z,0
2022-10-12T01:16:59.292Z,0
2022-10-12T01:22:16.271Z,0
2022-10-12T01:27:40.388Z,0
2022-10-12T01:32:58.179Z,0
2022-10-12T01:38:17.545Z,0
2022-10-12T01:43:34.785Z,0
2022-10-12T01:49:35.193Z,0
2022-10-12T01:54:52.862Z,0
2022-10-12T02:00:10.355Z,0
2022-10-12T02:05:27.766Z,0
2022-10-12T02:10:45.155Z,0
2022-10-12T02:16:02.350Z,0
2022-10-12T02:21:25.498Z,0
2022-10-12T02:26:42.806Z,0
2022-10-12T02:32:00.176Z,0
2022-10-12T02:37:17.944Z,0
2022-10-12T02:43:05.564Z,0
2022-10-12T02:48:26.526Z,0
2022-10-12T02:53:43.666Z,0
2022-10-12T02:59:00.927Z,0
2022-10-12T03:04:18.100Z,0
2022-10-12T03:09:35.550Z,0
2022-10-12T03:14:56.193Z,0
2022-10-12T03:20:13.454Z,0
2022-10-12T03:25:30.739Z,0
2022-10-12T03:30:48.439Z,0
2022-10-12T03:36:05.663Z,0
2022-10-12T03:41:22.931Z,0
2022-10-12T03:46:40.173Z,0
2022-10-12T03:52:11.762Z,0
2022-10-12T04:03:18.906Z,0
2022-10-12T04:08:40.201Z,0
2022-10-12T04:13:57.612Z,0
2022-10-12T04:19:14.736Z,0
2022-10-12T04:24:32.547Z,0
2022-10-12T04:29:49.856Z,0
2022-10-12T04:35:07.057Z,0
2022-10-12T04:40:24.236Z,0
2022-10-12T04:45:44.661Z,0
2022-10-12T04:51:02.051Z,0
2022-10-12T04:56:19.274Z,0
2022-10-12T05:01:36.642Z,0
2022-10-12T05:06:54.191Z,0
2022-10-12T05:12:11.491Z,0
2022-10-12T05:17:28.666Z,0
2022-10-12T05:22:45.952Z,0
2022-10-12T05:28:19.580Z,0
2022-10-12T05:33:37.145Z,0.9
2022-10-12T05:38:54.091Z,32.1
2022-10-12T05:44:10.946Z,71.7
2022-10-12T05:49:27.783Z,141.3
2022-10-12T05:54:44.787Z,237.9
2022-10-12T06:00:01.657Z,363.7
2022-10-12T06:05:18.728Z,495.8
2022-10-12T06:16:01.453Z,773.3
2022-10-12T06:21:32.865Z,968.3
2022-10-12T06:26:54.006Z,1193.7
2022-10-12T06:32:13.649Z,1395
2022-10-12T06:37:48.926Z,1487.1
2022-10-12T06:43:06.978Z,1490.4
2022-10-12T06:53:40.727Z,1678.3
2022-10-12T06:59:00.562Z,2064.6
2022-10-12T07:04:18.326Z,2390.8
2022-10-12T07:09:38.872Z,3177.5
2022-10-12T07:14:56.126Z,3599.6
2022-10-12T07:20:13.542Z,3987.9
2022-10-12T07:25:31.296Z,4468.7
2022-10-12T07:30:49.289Z,4753.3
2022-10-12T07:36:15.814Z,5212.9
2022-10-12T07:41:40.322Z,5098.7
2022-10-12T07:46:57.470Z,4759.6
2022-10-12T07:52:13.907Z,5785.8
2022-10-12T07:57:35.006Z,6407.9
2022-10-12T08:02:52.149Z,5817.5
2022-10-12T08:08:09.611Z,5973.3
2022-10-12T08:13:30.212Z,5904.6
2022-10-12T08:18:47.297Z,6317.5
2022-10-12T08:24:04.618Z,13076.2
2022-10-12T08:29:22.398Z,15335
2022-10-12T08:34:40.170Z,11859.6
2022-10-12T08:45:17.393Z,7722.9
2022-10-12T08:50:39.477Z,7733.3
2022-10-12T11:50:28.107Z,12320
2022-10-12T12:55:38.007Z,13295.4
2022-10-12T13:06:05.677Z,14990.8
2022-10-12T13:11:43.422Z,8720
2022-10-12T13:22:45.157Z,8056.7
2022-10-12T13:33:30.011Z,12087.5
2022-10-12T13:38:52.276Z,14150.8
2022-10-12T13:44:10.280Z,15450
2022-10-12T13:49:27.263Z,13257.5
2022-10-12T14:00:08.245Z,13867.9
2022-10-12T14:10:48.030Z,8493.3
2022-10-12T14:16:25.479Z,6217.9
2022-10-12T14:21:42.347Z,5183.3
2022-10-12T14:26:58.247Z,4152.9
2022-10-12T14:32:14.430Z,3490
2022-10-12T14:37:30.966Z,3183.8
2022-10-12T14:42:57.066Z,2931.3
2022-10-12T14:48:14.258Z,2780.4
2022-10-12T14:53:30.962Z,2570.4
2022-10-12T14:58:55.676Z,2747.9
2022-10-12T15:04:12.802Z,2431.3
2022-10-12T15:09:29.559Z,2255.8
2022-10-12T15:14:46.232Z,1739.2
2022-10-12T15:20:03.254Z,1528.3
2022-10-12T15:25:19.988Z,1614.6
2022-10-12T15:30:47.415Z,1902.1
2022-10-12T15:36:09.450Z,2240
2022-10-12T15:41:26.346Z,2973.8
2022-10-12T15:46:43.345Z,3293.8
2022-10-12T15:52:00.471Z,2656.3
2022-10-12T15:57:17.473Z,2342.9
2022-10-12T16:02:34.243Z,2212.1
2022-10-12T16:07:58.703Z,1822.1
2022-10-12T16:13:15.866Z,1148.8
2022-10-12T16:18:32.987Z,862.5
2022-10-12T16:23:53.012Z,744.2
2022-10-12T16:29:09.760Z,680.8
2022-10-12T16:34:26.535Z,582.5
2022-10-12T16:39:43.364Z,416.7
2022-10-12T16:45:00.140Z,248.7
2022-10-12T16:50:19.810Z,138.8
2022-10-12T16:55:36.827Z,73.3
2022-10-12T17:00:53.583Z,35.8
2022-10-12T17:06:17.903Z,16.8
2022-10-12T17:11:35.426Z,5.7
2022-10-12T17:16:52.543Z,2
2022-10-12T17:22:09.672Z,0.7
2022-10-12T17:27:32.340Z,0.2
2022-10-12T17:32:50.339Z,0
2022-10-12T17:38:07.673Z,0
2022-10-12T17:43:24.843Z,0
2022-10-12T17:48:42.081Z,0
2022-10-12T17:53:59.357Z,0
2022-10-12T17:59:16.714Z,0
2022-10-12T18:04:37.609Z,0
2022-10-12T18:09:55.024Z,0
2022-10-12T18:15:12.454Z,0
2022-10-12T18:20:29.420Z,0
2022-10-12T18:25:56.750Z,0
2022-10-12T18:31:14.114Z,0
2022-10-12T18:36:36.496Z,0
2022-10-12T18:41:53.652Z,0
2022-10-12T18:47:10.849Z,0
2022-10-12T18:57:49.621Z,0
2022-10-12T19:08:30.506Z,0
2022-10-12T19:13:48.211Z,0
2022-10-12T19:19:07.113Z,0
2022-10-12T19:24:24.512Z,0
2022-10-12T19:29:45.592Z,0
2022-10-12T19:35:03.865Z,0
2022-10-12T19:40:30.304Z,0
2022-10-12T19:45:48.222Z,0
2022-10-12T19:56:26.193Z,0
2022-10-12T20:08:04.791Z,0
2022-10-12T20:13:24.001Z,0
2022-10-12T20:18:41.399Z,0
2022-10-12T20:23:58.700Z,0
2022-10-12T20:29:16.099Z,0
2022-10-12T20:34:33.597Z,0
2022-10-12T20:39:54.647Z,0
2022-10-12T20:45:12.239Z,0
2022-10-12T20:50:30.045Z,0
2022-10-12T20:55:47.716Z,0
2022-10-12T21:01:05.229Z,0
2022-10-12T21:06:25.501Z,0
2022-10-12T21:11:42.790Z,0
2022-10-12T21:17:00.127Z,0
2022-10-12T21:22:20.893Z,0
2022-10-12T21:27:38.402Z,0
2022-10-12T21:32:55.767Z,0
2022-10-12T21:38:13.071Z,0
2022-10-12T21:43:30.224Z,0
2022-10-12T21:48:47.687Z,0
2022-10-12T21:54:05.293Z,0
2022-10-12T21:59:22.975Z,0
2022-10-12T22:04:40.906Z,0
2022-10-12T22:09:58.300Z,0
2022-10-12T22:15:15.986Z,0
2022-10-12T22:20:33.676Z,0
2022-10-12T22:25:51.174Z,0
2022-10-12T22:36:28.865Z,0
2022-10-12T22:41:46.980Z,0
2022-10-12T22:47:04.435Z,0
2022-10-12T22:52:25.507Z,0
2022-10-12T22:57:43.170Z,0
2022-10-12T23:03:00.585Z,0
2022-10-12T23:08:29.212Z,0
2022-10-12T23:13:46.811Z,0
2022-10-12T23:19:06.856Z,0
2022-10-12T23:24:24.243Z,0
2022-10-12T23:35:01.965Z,0
2022-10-12T23:40:19.546Z,0
2022-10-12T23:45:37.065Z,0
2022-10-12T23:50:54.717Z,0
2022-10-12T23:56:15.041Z,0
